Time;durP1;ratioP1;P1;durP2;ratioP2;P2;SDS_P1;SDS_P2;PMS_P1;PMS_P2;Temp;Humidity;BMP_temperature;BMP_pressure;BME280_temperature;BME280_humidity;BME280_pressure;Samples;Min_cycle;Max_cycle;Signal;HPM_P1;HPM_P2
2023/08/16 00:00:53;;;;;;;;;;;19.60;99.90;;;;;;5030710;28;19928;-77
2023/08/16 00:03:21;;;;;;;;;;;19.60;99.90;;;;;;5029213;28;20299;-77
2023/08/16 00:05:49;;;;;;;;;;;19.60;99.90;;;;;;5030043;28;19927;-77
2023/08/16 00:08:16;;;;;;;;;;;19.60;99.90;;;;;;5031165;28;20339;-78
2023/08/16 00:10:46;;;;;;;;;;;19.60;99.90;;;;;;5031664;28;19925;-77
2023/08/16 00:13:13;;;;;;;;;;;19.60;99.90;;;;;;5044162;22;20283;-70
2023/08/16 00:15:41;;;;;;;;;;;19.60;99.90;;;;;;4991969;28;20074;-71
2023/08/16 00:18:09;;;;;;;;;;;19.60;99.90;;;;;;4992299;28;19929;-70
2023/08/16 00:20:37;;;;;;;;;;;19.50;99.90;;;;;;4990739;28;19925;-71
2023/08/16 00:23:05;;;;;;;;;;;19.50;99.90;;;;;;4985982;28;19929;-71
2023/08/16 00:25:32;;;;;;;;;;;19.50;99.90;;;;;;4991745;28;19921;-71
2023/08/16 00:28:02;;;;;;;;;;;19.50;99.90;;;;;;4992258;28;19925;-71
2023/08/16 00:30:29;;;;;;;;;;;19.50;99.90;;;;;;4991223;28;21090;-71
2023/08/16 00:32:57;;;;;;;;;;;19.40;99.90;;;;;;4992546;28;19934;-71
2023/08/16 00:35:25;;;;;;;;;;;19.40;99.90;;;;;;4993086;28;19926;-71
2023/08/16 00:37:53;;;;;;;;;;;19.40;99.90;;;;;;4991716;28;19930;-70
2023/08/16 00:40:21;;;;;;;;;;;19.40;99.90;;;;;;4992120;28;19929;-72
2023/08/16 00:42:49;;;;;;;;;;;19.40;99.90;;;;;;4991024;28;19976;-72
2023/08/16 00:45:18;;;;;;;;;;;19.30;99.90;;;;;;4991905;28;19940;-70
2023/08/16 00:47:46;;;;;;;;;;;19.30;99.90;;;;;;4990749;28;19976;-70
2023/08/16 00:50:14;;;;;;;;;;;19.30;99.90;;;;;;4987421;28;19940;-70
2023/08/16 00:52:41;;;;;;;;;;;19.30;99.90;;;;;;4992074;28;19929;-70
2023/08/16 00:55:09;;;;;;;;;;;19.30;99.90;;;;;;4993006;28;20435;-70
2023/08/16 00:57:37;;;;;;;;;;;19.20;99.90;;;;;;4993523;28;19962;-70
2023/08/16 01:00:06;;;;;;;;;;;19.20;99.90;;;;;;4992321;28;19933;-70
2023/08/16 01:02:35;;;;;;;;;;;19.20;99.90;;;;;;4993093;28;20289;-70
2023/08/16 01:05:03;;;;;;;;;;;19.20;99.90;;;;;;4990801;28;19922;-70
2023/08/16 01:07:31;;;;;;;;;;;19.20;99.90;;;;;;4992971;28;20309;-70
2023/08/16 01:09:59;;;;;;;;;;;19.20;99.90;;;;;;4989393;28;19957;-70
2023/08/16 01:12:32;;;;;;;;;;;19.10;99.90;;;;;;4992323;28;20578;-70
2023/08/16 01:15:04;;;;;;;;;;;19.10;99.90;;;;;;4990411;28;19926;-70
2023/08/16 01:17:32;;;;;;;;;;;19.10;99.90;;;;;;4989652;28;19929;-70
2023/08/16 01:20:03;;;;;;;;;;;19.00;99.90;;;;;;4990486;28;19932;-70
2023/08/16 01:22:35;;;;;;;;;;;19.00;99.90;;;;;;4992687;28;20716;-70
2023/08/16 01:25:21;;;;;;;;;;;19.10;99.90;;;;;;4991474;28;19921;-70
2023/08/16 01:27:52;;;;;;;;;;;19.10;99.90;;;;;;4990905;28;19922;-70
2023/08/16 01:30:21;;;;;;;;;;;19.10;99.90;;;;;;4992697;28;19933;-70
2023/08/16 01:32:49;;;;;;;;;;;19.00;99.90;;;;;;4991077;28;19922;-70
2023/08/16 01:35:17;;;;;;;;;;;19.00;99.90;;;;;;4986749;28;19922;-70
2023/08/16 01:37:45;;;;;;;;;;;18.90;99.90;;;;;;4991107;28;20419;-70
2023/08/16 01:40:13;;;;;;;;;;;19.00;99.90;;;;;;4989886;28;19948;-70
2023/08/16 01:42:44;;;;;;;;;;;19.00;99.90;;;;;;4991441;28;19969;-70
2023/08/16 01:45:16;;;;;;;;;;;19.00;99.90;;;;;;4991152;28;19925;-70
2023/08/16 01:47:44;;;;;;;;;;;19.00;99.90;;;;;;4990232;28;19922;-70
2023/08/16 01:50:12;;;;;;;;;;;19.00;99.90;;;;;;4990367;28;19925;-70
2023/08/16 01:52:40;;;;;;;;;;;19.00;99.90;;;;;;4991730;28;19925;-71
2023/08/16 01:55:08;;;;;;;;;;;19.00;99.90;;;;;;4989497;28;19941;-70
2023/08/16 01:57:36;;;;;;;;;;;19.00;99.90;;;;;;4991150;28;19977;-70
2023/08/16 02:00:05;;;;;;;;;;;19.00;99.90;;;;;;4989255;28;19930;-70
2023/08/16 02:02:34;;;;;;;;;;;19.00;99.90;;;;;;4990378;28;20460;-70
2023/08/16 02:05:02;;;;;;;;;;;19.10;99.90;;;;;;4990184;28;19922;-70
2023/08/16 02:07:29;;;;;;;;;;;19.00;99.90;;;;;;4988751;28;19929;-71
2023/08/16 02:09:57;;;;;;;;;;;19.00;99.90;;;;;;4988414;28;19929;-71
2023/08/16 02:12:25;;;;;;;;;;;19.00;99.90;;;;;;4989595;28;19948;-71
2023/08/16 02:14:53;;;;;;;;;;;18.90;99.90;;;;;;4989008;28;19984;-71
2023/08/16 02:17:20;;;;;;;;;;;19.00;99.90;;;;;;4989638;28;19921;-71
2023/08/16 02:19:50;;;;;;;;;;;19.00;99.90;;;;;;4989722;28;19925;-71
2023/08/16 02:22:18;;;;;;;;;;;19.00;99.90;;;;;;4989347;28;19922;-70
2023/08/16 02:24:47;;;;;;;;;;;18.90;99.90;;;;;;4990084;28;20003;-70
2023/08/16 02:27:15;;;;;;;;;;;18.90;99.90;;;;;;4990747;28;20305;-70
2023/08/16 02:29:42;;;;;;;;;;;18.90;99.90;;;;;;4990364;28;20325;-71
2023/08/16 02:32:10;;;;;;;;;;;18.80;99.90;;;;;;4988536;28;20332;-71
2023/08/16 02:34:38;;;;;;;;;;;18.90;99.90;;;;;;4989879;28;19926;-71
2023/08/16 02:37:07;;;;;;;;;;;18.90;99.90;;;;;;4989855;28;19929;-71
2023/08/16 02:39:35;;;;;;;;;;;18.90;99.90;;;;;;4990350;28;19925;-71
2023/08/16 02:42:03;;;;;;;;;;;18.90;99.90;;;;;;4990613;28;19922;-71
2023/08/16 02:44:31;;;;;;;;;;;18.80;99.90;;;;;;4990699;28;19922;-71
2023/08/16 02:46:59;;;;;;;;;;;18.80;99.90;;;;;;4990330;28;19922;-71
2023/08/16 02:49:27;;;;;;;;;;;18.80;99.90;;;;;;4990622;28;19922;-71
2023/08/16 02:51:54;;;;;;;;;;;18.70;99.90;;;;;;4989611;28;19922;-71
2023/08/16 02:54:24;;;;;;;;;;;18.60;99.90;;;;;;4990373;28;19973;-70
2023/08/16 02:56:51;;;;;;;;;;;18.60;99.90;;;;;;4990303;28;19921;-72
2023/08/16 02:59:19;;;;;;;;;;;18.50;99.90;;;;;;4989964;28;19952;-72
2023/08/16 03:01:47;;;;;;;;;;;18.40;99.90;;;;;;4988967;28;19976;-70
2023/08/16 03:04:15;;;;;;;;;;;18.40;99.90;;;;;;4987435;28;20329;-70
2023/08/16 03:06:43;;;;;;;;;;;18.40;99.90;;;;;;4992892;28;19929;-70
2023/08/16 03:09:11;;;;;;;;;;;18.30;99.90;;;;;;4994424;28;19930;-71
2023/08/16 03:11:40;;;;;;;;;;;18.40;99.90;;;;;;4995070;28;19928;-71
2023/08/16 03:14:07;;;;;;;;;;;18.30;99.90;;;;;;4993051;28;19932;-71
2023/08/16 03:16:35;;;;;;;;;;;18.40;99.90;;;;;;4994423;28;20214;-71
2023/08/16 03:19:03;;;;;;;;;;;18.40;99.90;;;;;;4993189;28;20389;-71
2023/08/16 03:21:33;;;;;;;;;;;18.40;99.90;;;;;;4994199;28;19930;-71
2023/08/16 03:24:01;;;;;;;;;;;18.40;99.90;;;;;;4993830;28;19961;-70
2023/08/16 03:26:29;;;;;;;;;;;18.40;99.90;;;;;;4989909;28;19922;-71
2023/08/16 03:28:58;;;;;;;;;;;18.40;99.90;;;;;;4993866;28;20194;-71
2023/08/16 03:31:26;;;;;;;;;;;18.40;99.90;;;;;;4993208;28;19968;-70
2023/08/16 03:33:53;;;;;;;;;;;18.40;99.90;;;;;;4994139;28;20355;-70
2023/08/16 03:36:21;;;;;;;;;;;18.40;99.90;;;;;;4993637;28;19933;-70
2023/08/16 03:38:49;;;;;;;;;;;18.40;99.90;;;;;;4993559;28;19938;-70
2023/08/16 03:41:17;;;;;;;;;;;18.50;99.90;;;;;;4993927;28;19922;-70
2023/08/16 03:43:44;;;;;;;;;;;18.50;99.90;;;;;;4993201;28;19937;-70
2023/08/16 03:46:13;;;;;;;;;;;18.50;99.90;;;;;;4988415;28;19921;-70
2023/08/16 03:48:41;;;;;;;;;;;18.50;99.90;;;;;;4993798;28;19925;-71
2023/08/16 03:51:09;;;;;;;;;;;18.50;99.90;;;;;;4993235;28;20364;-70
2023/08/16 03:53:37;;;;;;;;;;;18.50;99.90;;;;;;4992327;28;20304;-70
2023/08/16 03:56:05;;;;;;;;;;;18.60;99.90;;;;;;4993653;28;20342;-70
2023/08/16 03:58:32;;;;;;;;;;;18.60;99.90;;;;;;4993339;28;20405;-70
2023/08/16 04:01:00;;;;;;;;;;;18.70;99.90;;;;;;4992381;28;19925;-70
2023/08/16 04:03:29;;;;;;;;;;;18.70;99.90;;;;;;4993486;28;20357;-68
2023/08/16 04:05:57;;;;;;;;;;;18.70;99.90;;;;;;4992810;28;19968;-69
2023/08/16 04:08:25;;;;;;;;;;;18.70;99.90;;;;;;4994424;28;19972;-69
2023/08/16 04:10:53;;;;;;;;;;;18.80;99.90;;;;;;4990781;28;19926;-69
2023/08/16 04:13:21;;;;;;;;;;;18.80;99.90;;;;;;4994224;28;20340;-69
2023/08/16 04:15:49;;;;;;;;;;;18.80;99.90;;;;;;4994592;28;19921;-70
2023/08/16 04:18:16;;;;;;;;;;;18.90;99.90;;;;;;4993088;28;20266;-69
2023/08/16 04:20:46;;;;;;;;;;;18.90;99.90;;;;;;4994459;28;20415;-69
2023/08/16 04:23:13;;;;;;;;;;;18.80;99.90;;;;;;4991991;28;19929;-69
2023/08/16 04:25:41;;;;;;;;;;;18.80;99.90;;;;;;4993281;28;19944;-69
2023/08/16 04:28:09;;;;;;;;;;;18.70;99.90;;;;;;4990361;28;19926;-69
2023/08/16 04:30:37;;;;;;;;;;;18.70;99.90;;;;;;4992602;28;19921;-69
2023/08/16 04:33:05;;;;;;;;;;;18.60;99.90;;;;;;4991786;28;19930;-69
2023/08/16 04:35:32;;;;;;;;;;;18.60;99.90;;;;;;4990977;28;19925;-69
2023/08/16 04:38:01;;;;;;;;;;;18.70;99.90;;;;;;4990092;28;19975;-68
2023/08/16 04:40:29;;;;;;;;;;;18.70;99.90;;;;;;4989481;28;19922;-69
2023/08/16 04:42:57;;;;;;;;;;;18.70;99.90;;;;;;4990184;28;19925;-69
2023/08/16 04:45:25;;;;;;;;;;;18.70;99.90;;;;;;4991170;28;19932;-69
2023/08/16 04:47:53;;;;;;;;;;;18.70;99.90;;;;;;4989690;28;19946;-69
2023/08/16 04:50:21;;;;;;;;;;;18.70;99.90;;;;;;4992200;28;19921;-68
2023/08/16 04:52:49;;;;;;;;;;;18.80;99.90;;;;;;4990308;28;20312;-69
2023/08/16 04:55:18;;;;;;;;;;;18.70;99.90;;;;;;4989837;28;19921;-69
2023/08/16 04:57:46;;;;;;;;;;;18.80;99.90;;;;;;4992505;28;20312;-69
2023/08/16 05:00:14;;;;;;;;;;;18.80;99.90;;;;;;4992952;28;19947;-68
2023/08/16 05:02:42;;;;;;;;;;;18.80;99.90;;;;;;4991058;28;19929;-70
2023/08/16 05:05:10;;;;;;;;;;;18.90;99.90;;;;;;4989362;28;19925;-69
2023/08/16 05:07:38;;;;;;;;;;;18.90;99.90;;;;;;4990543;28;19925;-70
2023/08/16 05:10:06;;;;;;;;;;;18.90;99.90;;;;;;4989887;28;19929;-67
2023/08/16 05:12:35;;;;;;;;;;;19.00;99.90;;;;;;4990403;28;20618;-69
2023/08/16 05:15:03;;;;;;;;;;;19.00;99.90;;;;;;4989292;28;19929;-69
2023/08/16 05:17:31;;;;;;;;;;;19.00;99.90;;;;;;4989650;28;19921;-68
2023/08/16 05:19:59;;;;;;;;;;;19.10;99.90;;;;;;4990181;28;19921;-68
2023/08/16 05:22:27;;;;;;;;;;;19.10;99.90;;;;;;4989725;28;19929;-69
2023/08/16 05:24:55;;;;;;;;;;;19.20;99.90;;;;;;4990121;28;19922;-69
2023/08/16 05:27:23;;;;;;;;;;;19.20;99.90;;;;;;4991569;28;19922;-68
2023/08/16 05:29:52;;;;;;;;;;;19.20;99.90;;;;;;4988940;28;19977;-69
2023/08/16 05:32:20;;;;;;;;;;;19.20;99.90;;;;;;4990139;28;20301;-69
2023/08/16 05:34:48;;;;;;;10.50;4.03;;;19.20;99.90;;;;;;4988168;28;20179;-69
2023/08/16 05:37:16;;;;;;;7.90;3.90;;;19.20;99.90;;;;;;4988963;28;20214;-70
2023/08/16 05:39:44;;;;;;;13.13;4.07;;;19.20;99.90;;;;;;4989908;28;20213;-69
2023/08/16 05:42:12;;;;;;;8.32;4.15;;;19.30;99.90;;;;;;4989708;28;20224;-70
2023/08/16 05:44:40;;;;;;;4.55;3.28;;;19.30;99.90;;;;;;4990652;28;20232;-70
2023/08/16 05:47:09;;;;;;;9.00;4.28;;;19.30;99.90;;;;;;4989168;28;20252;-68
2023/08/16 05:49:37;;;;;;;10.50;4.63;;;19.30;99.90;;;;;;4990058;28;20220;-70
2023/08/16 05:52:05;;;;;;;5.70;4.10;;;19.40;99.90;;;;;;4990900;28;20575;-69
2023/08/16 05:54:33;;;;;;;11.35;4.13;;;19.40;99.90;;;;;;4990849;28;20627;-69
2023/08/16 05:57:01;;;;;;;7.90;3.40;;;19.40;99.90;;;;;;4988855;28;20210;-70
2023/08/16 05:59:29;;;;;;;11.02;4.70;;;19.40;99.90;;;;;;4989744;28;20657;-70
2023/08/16 06:01:57;;;;;;;9.95;3.90;;;19.40;99.90;;;;;;4990955;28;20213;-69
2023/08/16 06:04:27;;;;;;;12.40;4.88;;;19.40;99.90;;;;;;4991810;28;20224;-70
2023/08/16 06:06:54;;;;;;;10.48;4.10;;;19.40;99.90;;;;;;4991789;28;20213;-70
2023/08/16 06:09:22;;;;;;;;;;;19.50;99.90;;;;;;4991904;28;20575;-69
2023/08/16 06:11:50;;;;;;;;;;;19.50;99.90;;;;;;4992455;28;19972;-69
2023/08/16 06:14:18;;;;;;;;;;;19.50;99.90;;;;;;4991825;28;19921;-69
2023/08/16 06:16:46;;;;;;;;;;;19.50;99.90;;;;;;4992802;28;19926;-69
2023/08/16 06:19:15;;;;;;;;;;;19.50;99.90;;;;;;4991953;28;19926;-69
2023/08/16 06:21:45;;;;;;;;;;;19.50;99.90;;;;;;4992501;28;19921;-69
2023/08/16 06:24:12;;;;;;;;;;;19.50;99.90;;;;;;4991968;28;19922;-70
2023/08/16 06:26:40;;;;;;;;;;;19.60;99.90;;;;;;4992244;28;19976;-70
2023/08/16 06:29:08;;;;;;;;;;;19.60;99.90;;;;;;4991319;28;19922;-70
2023/08/16 06:31:36;;;;;;;;;;;19.60;99.90;;;;;;4991152;28;19922;-69
2023/08/16 06:34:04;;;;;;;;;;;19.60;99.90;;;;;;4991669;28;19921;-69
2023/08/16 06:36:32;;;;;;;;;;;19.70;99.90;;;;;;4992091;28;19929;-69
2023/08/16 06:39:01;;;;;;;;;;;19.70;99.90;;;;;;4991496;28;19921;-69
2023/08/16 06:41:29;;;;;;;;;;;19.70;99.90;;;;;;4991802;28;19976;-70
2023/08/16 06:43:57;;;;;;;;;;;19.70;99.90;;;;;;4992012;28;19929;-69
2023/08/16 06:46:24;;;;;;;;;;;19.70;99.90;;;;;;4991746;28;20392;-68
2023/08/16 06:48:52;;;;;;;;;;;19.80;99.90;;;;;;4991711;28;20304;-69
2023/08/16 06:51:20;;;;;;;;;;;19.80;99.90;;;;;;4992032;28;20377;-68
2023/08/16 06:53:49;;;;;;;;;;;19.80;99.90;;;;;;4991474;28;19977;-69
2023/08/16 06:56:18;;;;;;;;;;;19.80;99.90;;;;;;4991637;28;19926;-69
2023/08/16 06:58:46;;;;;;;;;;;19.80;99.90;;;;;;4991854;28;19925;-68
2023/08/16 07:01:14;;;;;;;;;;;19.90;99.90;;;;;;4991562;28;20300;-69
2023/08/16 07:03:42;;;;;;;;;;;19.90;99.90;;;;;;4986825;28;19926;-69
2023/08/16 07:06:10;;;;;;;;;;;19.90;99.90;;;;;;4991664;28;20381;-69
2023/08/16 07:08:38;;;;;;;;;;;20.00;99.90;;;;;;4991461;28;19926;-68
2023/08/16 07:11:06;;;;;;;;;;;20.10;99.90;;;;;;5054812;22;19921;-78
2023/08/16 07:13:35;;;;;;;;;;;20.20;99.90;;;;;;5049265;28;20007;-78
2023/08/16 07:16:03;;;;;;;;;;;20.40;99.90;;;;;;5049957;28;19925;-80
2023/08/16 07:18:31;;;;;;;;;;;20.50;99.90;;;;;;5047953;28;19921;-78
2023/08/16 07:20:59;;;;;;;;;;;20.60;99.90;;;;;;5037261;28;19925;-78
2023/08/16 07:23:27;;;;;;;;;;;20.60;99.90;;;;;;5023776;28;19921;-78
2023/08/16 07:25:56;;;;;;;;;;;20.70;99.90;;;;;;5029893;28;20314;-78
2023/08/16 07:28:24;;;;;;;;;;;20.70;99.90;;;;;;5030879;28;20403;-78
2023/08/16 07:30:54;;;;;;;;;;;20.80;99.90;;;;;;5031030;28;20395;-79
2023/08/16 07:33:22;;;;;;;;;;;20.80;99.90;;;;;;5031359;28;19921;-79
2023/08/16 07:35:49;;;;;;;;;;;20.90;99.90;;;;;;5028927;28;19921;-78
2023/08/16 07:38:17;;;;;;;;;;;20.80;99.90;;;;;;5029972;28;20387;-78
2023/08/16 07:40:47;;;;;;;;;;;20.90;99.90;;;;;;5030475;28;19924;-78
2023/08/16 07:43:15;;;;;;;;;;;21.00;99.90;;;;;;5028175;28;20399;-78
2023/08/16 07:45:42;;;;;;;;;;;21.00;99.90;;;;;;5026001;28;19932;-78
2023/08/16 07:48:12;;;;;;;;;;;21.10;99.90;;;;;;5029055;28;19932;-80
2023/08/16 07:50:43;;;;;;;;;;;21.20;99.90;;;;;;5030276;28;19933;-79
2023/08/16 07:53:11;;;;;;;;;;;21.30;99.90;;;;;;5030958;28;19921;-80
2023/08/16 07:55:39;;;;;;;;;;;21.30;99.90;;;;;;5030936;28;20269;-79
2023/08/16 07:58:07;;;;;;;;;;;21.30;99.90;;;;;;5031578;28;19920;-78
2023/08/16 08:00:35;;;;;;;;;;;21.30;99.90;;;;;;5031126;28;19978;-79
2023/08/16 08:03:03;;;;;;;;;;;21.50;99.90;;;;;;5032412;28;19987;-78
2023/08/16 08:05:32;;;;;;;;;;;21.50;99.90;;;;;;5031881;28;19921;-78
2023/08/16 08:08:00;;;;;;;;;;;21.50;99.90;;;;;;5030699;28;19921;-78
2023/08/16 08:10:29;;;;;;;;;;;21.50;99.90;;;;;;5030576;28;19925;-77
2023/08/16 08:12:57;;;;;;;;;;;21.70;99.90;;;;;;5029867;28;20011;-79
2023/08/16 08:15:25;;;;;;;;;;;21.70;99.90;;;;;;5031342;28;20503;-79
2023/08/16 08:17:52;;;;;;;;;;;21.60;99.90;;;;;;5030682;28;20379;-79
2023/08/16 08:20:20;;;;;;;;;;;21.50;99.90;;;;;;5029591;28;19925;-79
2023/08/16 08:22:50;;;;;;;;;;;21.50;99.90;;;;;;5031410;28;19928;-79
2023/08/16 08:25:17;;;;;;;;;;;21.60;99.90;;;;;;5029448;28;21413;-79
2023/08/16 08:27:46;;;;;;;;;;;21.70;99.90;;;;;;5028565;28;19929;-78
2023/08/16 08:30:15;;;;;;;;;;;21.80;99.90;;;;;;5033783;28;20346;-75
2023/08/16 08:32:43;;;;;;;;;;;21.90;99.90;;;;;;5024436;28;19939;-78
2023/08/16 08:35:11;;;;;;;;;;;21.90;99.90;;;;;;5033645;28;20291;-79
2023/08/16 08:37:39;;;;;;;;;;;21.90;99.90;;;;;;5033100;28;20033;-78
2023/08/16 08:40:08;;;;;;;;;;;21.90;99.90;;;;;;5029476;28;19925;-77
2023/08/16 08:42:36;;;;;;;;;;;22.10;99.90;;;;;;5033202;28;19929;-77
2023/08/16 08:45:05;;;;;;;;;;;22.30;99.90;;;;;;5033445;28;19921;-77
2023/08/16 08:47:32;;;;;;;;;;;22.40;99.90;;;;;;5032726;28;20281;-78
2023/08/16 08:50:02;;;;;;;;;;;22.60;99.90;;;;;;5032996;28;20384;-77
2023/08/16 08:52:30;;;;;;;;;;;22.60;99.90;;;;;;5030724;28;20304;-77
2023/08/16 08:54:59;;;;;;;;;;;22.90;99.90;;;;;;5032874;28;19990;-77
2023/08/16 08:57:30;;;;;;;;;;;22.90;99.90;;;;;;5032739;28;20391;-77
2023/08/16 08:59:58;;;;;;;;;;;23.20;99.90;;;;;;5032799;28;19921;-79
2023/08/16 09:02:28;;;;;;;;;;;23.40;99.90;;;;;;5032336;28;20387;-78
2023/08/16 09:05:00;;;;;;;;;;;23.70;99.90;;;;;;5028667;28;20012;-79
2023/08/16 09:07:28;;;;;;;3.60;2.80;;;23.90;99.90;;;;;;5032242;28;20575;-76
2023/08/16 09:09:56;;;;;;;2.75;2.55;;;24.10;99.90;;;;;;5031552;28;20324;-75
2023/08/16 09:12:24;;;;;;;2.92;2.72;;;24.20;99.90;;;;;;5032123;28;20209;-75
2023/08/16 09:14:54;;;;;;;2.80;2.60;;;24.30;99.90;;;;;;5032014;28;20652;-75
2023/08/16 09:17:22;;;;;;;3.33;3.05;;;24.30;99.90;;;;;;5031911;28;20268;-75
2023/08/16 09:19:50;;;;;;;2.53;2.42;;;24.30;99.90;;;;;;5031608;28;20288;-75
2023/08/16 09:22:18;;;;;;;2.35;2.15;;;24.10;99.90;;;;;;5032026;28;20206;-75
2023/08/16 09:24:48;;;;;;;3.75;3.47;;;24.10;99.90;;;;;;5030717;28;20209;-76
2023/08/16 09:27:21;;;;;;;2.40;2.20;;;24.20;99.90;;;;;;5032594;28;20204;-76
2023/08/16 09:29:49;;;;;;;2.95;1.65;;;24.20;99.90;;;;;;5028950;28;20624;-75
2023/08/16 09:32:19;;;;;;;2.13;1.95;;;24.50;99.90;;;;;;5027817;28;20205;-75
2023/08/16 09:35:00;;;;;;;2.00;1.88;;;24.90;99.90;;;;;;5029332;28;20205;-76
2023/08/16 09:37:31;;;;;;;1.30;1.20;;;25.40;99.90;;;;;;5028573;28;20735;-78
2023/08/16 09:39:59;;;;;;;1.27;1.17;;;25.70;99.90;;;;;;5031541;28;20633;-77
2023/08/16 09:42:34;;;;;;;1.77;1.67;;;26.20;99.90;;;;;;5032303;28;20233;-75
2023/08/16 09:45:02;;;;;;;2.22;1.73;;;26.60;99.90;;;;;;5031890;28;20200;-76
2023/08/16 09:47:32;;;;;;;1.92;1.73;;;26.80;99.90;;;;;;5032472;28;20255;-76
2023/08/16 09:50:09;;;;;;;2.08;1.88;;;26.70;99.90;;;;;;5031822;28;20233;-79
2023/08/16 09:52:37;;;;;;;1.60;1.50;;;26.70;99.90;;;;;;5032063;28;20687;-76
2023/08/16 09:55:07;;;;;;;1.90;1.75;;;26.80;99.90;;;;;;5032098;28;20209;-78
2023/08/16 09:57:36;;;;;;;1.80;1.70;;;26.90;99.90;;;;;;5032076;28;20308;-77
2023/08/16 10:00:06;;;;;;;1.45;1.35;;;27.20;99.90;;;;;;5031678;28;20220;-76
2023/08/16 10:02:36;;;;;;;2.45;2.22;;;27.30;99.90;;;;;;5031789;28;20205;-76
2023/08/16 10:05:07;;;;;;;3.08;2.85;;;27.00;99.90;;;;;;5032143;28;20611;-76
2023/08/16 10:07:37;;;;;;;6.93;6.22;;;27.00;99.90;;;;;;5014029;28;20202;-78
2023/08/16 10:10:10;;;;;;;1.70;1.30;;;26.80;99.90;;;;;;5031241;28;20326;-77
2023/08/16 10:12:38;;;;;;;1.73;1.63;;;26.60;99.90;;;;;;5031557;28;20259;-76
2023/08/16 10:15:07;;;;;;;1.55;1.45;;;26.60;99.90;;;;;;5031263;28;20214;-75
2023/08/16 10:17:38;;;;;;;1.70;1.58;;;26.70;99.90;;;;;;5031608;28;20708;-75
2023/08/16 10:20:12;;;;;;;1.92;1.63;;;26.60;99.90;;;;;;5031617;28;20593;-76
2023/08/16 10:22:43;;;;;;;1.50;1.40;;;26.80;99.90;;;;;;5031600;28;20583;-76
2023/08/16 10:25:16;;;;;;;3.78;2.58;;;27.10;99.90;;;;;;5031786;28;20209;-75
2023/08/16 10:27:46;;;;;;;1.85;1.75;;;27.10;99.90;;;;;;5031539;28;20214;-75
2023/08/16 10:30:19;;;;;;;1.65;1.45;;;26.80;99.90;;;;;;5031591;28;20225;-76
2023/08/16 10:32:52;;;;;;;1.88;1.77;;;27.00;99.90;;;;;;5031464;28;20232;-78
2023/08/16 10:35:21;;;;;;;1.52;1.42;;;27.50;99.90;;;;;;5031508;28;20314;-75
2023/08/16 10:37:49;;;;;;;2.70;1.70;;;27.50;99.90;;;;;;5031645;28;20229;-76
2023/08/16 10:40:19;;;;;;;2.67;2.00;;;27.60;99.90;;;;;;5030965;28;20242;-76
2023/08/16 10:42:53;;;;;;;3.15;2.30;;;28.10;99.90;;;;;;5031360;28;20204;-75
2023/08/16 10:45:25;;;;;;;2.42;2.15;;;28.40;99.90;;;;;;5031248;28;20207;-76
2023/08/16 10:48:18;;;;;;;2.65;1.48;;;28.50;99.90;;;;;;5031485;28;20219;-76
2023/08/16 10:50:55;;;;;;;1.33;1.13;;;28.50;99.90;;;;;;5030802;28;20713;-76
2023/08/16 10:53:25;;;;;;;2.15;1.85;;;28.50;99.90;;;;;;5031701;28;20684;-76
2023/08/16 10:55:55;;;;;;;1.88;1.60;;;28.50;99.90;;;;;;5031375;28;20218;-75
2023/08/16 10:58:23;;;;;;;2.03;1.77;;;28.60;99.90;;;;;;5031541;28;20207;-75
2023/08/16 11:00:58;;;;;;;1.90;1.80;;;28.50;99.90;;;;;;5031020;28;20228;-76
2023/08/16 11:03:37;;;;;;;2.33;2.15;;;28.50;99.90;;;;;;5031230;28;20282;-75
2023/08/16 11:06:09;;;;;;;2.50;2.30;;;28.20;99.90;;;;;;5031346;28;20229;-78
2023/08/16 11:08:41;;;;;;;1.98;1.88;;;27.90;99.90;;;;;;5031056;28;20265;-75
2023/08/16 11:11:10;;;;;;;1.63;1.50;;;28.00;99.90;;;;;;5031170;28;20737;-76
2023/08/16 11:13:40;;;;;;;1.80;1.70;;;28.20;99.90;;;;;;5031080;28;20203;-76
2023/08/16 11:16:09;;;;;;;1.38;1.27;;;28.30;99.90;;;;;;5031338;28;20207;-76
2023/08/16 11:18:41;;;;;;;2.28;1.38;;;28.30;99.90;;;;;;5030955;28;20220;-77
2023/08/16 11:21:14;;;;;;;2.00;1.80;;;28.10;99.90;;;;;;5031229;28;20226;-75
2023/08/16 11:23:42;;;;;;;1.83;1.65;;;28.00;99.90;;;;;;5031146;28;20670;-76
2023/08/16 11:26:11;;;;;;;2.25;1.95;;;27.60;99.90;;;;;;5031130;28;20194;-76
2023/08/16 11:28:40;;;;;;;3.67;2.65;;;27.50;99.90;;;;;;5034839;28;20203;-75
2023/08/16 11:31:09;;;;;;;2.75;2.28;;;27.40;99.90;;;;;;5034910;28;20229;-76
2023/08/16 11:33:40;;;;;;;2.22;2.03;;;27.30;99.90;;;;;;5034868;28;20674;-75
2023/08/16 11:36:11;;;;;;;1.63;1.52;;;27.40;99.90;;;;;;5035115;28;20210;-75
2023/08/16 11:38:39;;;;;;;1.85;1.75;;;27.80;99.90;;;;;;5034745;28;20218;-76
2023/08/16 11:41:07;;;;;;;1.92;1.83;;;28.10;99.90;;;;;;5034818;28;20230;-76
2023/08/16 11:43:36;;;;;;;1.90;1.80;;;28.20;99.90;;;;;;5034788;28;20203;-73
2023/08/16 11:46:05;;;;;;;1.95;1.85;;;28.60;99.90;;;;;;5034776;28;20205;-76
2023/08/16 11:48:36;;;;;;;2.50;1.80;;;28.70;99.90;;;;;;5034760;28;20280;-79
2023/08/16 11:51:05;;;;;;;1.95;1.85;;;29.20;99.90;;;;;;5034883;28;20231;-76
2023/08/16 11:53:34;;;;;;;1.73;1.63;;;29.50;99.90;;;;;;5034567;28;20219;-76
2023/08/16 11:56:05;;;;;;;1.90;1.80;;;29.80;99.90;;;;;;5034754;28;20200;-76
2023/08/16 11:58:44;;;;;;;2.88;1.85;;;30.10;99.90;;;;;;5034553;28;20222;-76
2023/08/16 12:01:14;;;;;;;1.95;1.73;;;30.20;99.90;;;;;;5028255;28;20224;-77
2023/08/16 12:03:43;;;;;;;2.47;2.20;;;30.50;99.90;;;;;;5034474;28;20615;-76
2023/08/16 12:06:13;;;;;;;1.50;1.40;;;30.80;99.90;;;;;;5034510;28;20291;-76
2023/08/16 12:08:48;;;;;;;2.35;1.80;;;30.60;99.90;;;;;;5034088;28;20588;-75
2023/08/16 12:11:26;;;;;;;1.80;1.70;;;30.20;99.90;;;;;;5034111;28;20243;-76
2023/08/16 12:13:54;;;;;;;1.77;1.67;;;29.90;99.90;;;;;;5033882;28;20212;-77
2023/08/16 12:16:22;;;;;;;1.73;1.60;;;30.00;99.90;;;;;;5034290;28;20199;-77
2023/08/16 12:18:50;;;;;;;2.03;1.88;;;30.00;99.90;;;;;;5033919;28;20229;-75
2023/08/16 12:21:20;;;;;;;3.22;1.95;;;30.00;99.90;;;;;;5034081;28;20644;-76
2023/08/16 12:23:48;;;;;;;1.80;1.70;;;29.70;99.90;;;;;;5034089;28;20208;-75
2023/08/16 12:26:17;;;;;;;2.22;1.75;;;29.60;99.90;;;;;;5034025;28;20201;-76
2023/08/16 12:28:45;;;;;;;2.75;2.00;;;29.50;99.90;;;;;;5033865;28;20580;-76
2023/08/16 12:31:13;;;;;;;1.70;1.52;;;29.00;99.90;;;;;;5033852;28;20569;-76
2023/08/16 12:33:43;;;;;;;2.03;1.90;;;28.80;99.90;;;;;;5033949;28;20196;-76
2023/08/16 12:36:12;;;;;;;2.25;2.05;;;28.70;99.90;;;;;;5034039;28;20199;-76
2023/08/16 12:38:41;;;;;;;2.53;2.33;;;28.70;99.90;;;;;;5033270;28;20229;-76
2023/08/16 12:41:09;;;;;;;2.65;2.45;;;29.00;99.90;;;;;;5033515;28;20299;-76
2023/08/16 12:43:37;;;;;;;2.03;1.88;;;29.40;99.90;;;;;;5033785;28;20205;-76
2023/08/16 12:46:09;;;;;;;1.90;1.50;;;29.40;99.90;;;;;;5026498;28;20682;-77
2023/08/16 12:48:37;;;;;;;2.20;2.10;;;29.50;99.90;;;;;;5033777;28;20558;-75
2023/08/16 12:51:05;;;;;;;1.80;1.70;;;29.90;99.90;;;;;;5025773;28;20221;-76
2023/08/16 12:53:45;;;;;;;5.63;3.20;;;30.10;99.90;;;;;;5033583;28;20285;-75
2023/08/16 12:56:13;;;;;;;2.25;1.60;;;30.30;99.90;;;;;;5033747;28;20287;-75
2023/08/16 12:58:41;;;;;;;2.05;1.92;;;30.60;99.90;;;;;;5033181;28;20223;-76
2023/08/16 13:01:12;;;;;;;2.40;2.20;;;30.60;99.90;;;;;;5033452;28;20213;-76
2023/08/16 13:03:44;;;;;;;2.20;2.00;;;30.60;99.90;;;;;;5015875;28;20209;-76
2023/08/16 13:06:28;;;;;;;1.80;1.67;;;30.60;99.90;;;;;;5033461;28;20197;-76
2023/08/16 13:09:01;;;;;;;2.00;1.90;;;30.60;99.90;;;;;;5033136;28;20220;-78
2023/08/16 13:11:31;;;;;;;1.73;1.63;;;30.70;99.90;;;;;;5033707;28;20779;-75
2023/08/16 13:14:08;;;;;;;1.60;1.50;;;30.80;99.90;;;;;;5033390;28;20216;-76
2023/08/16 13:16:37;;;;;;;1.65;1.55;;;31.10;99.90;;;;;;5033506;28;20675;-75
2023/08/16 13:19:11;;;;;;;1.88;1.77;;;31.50;99.90;;;;;;5032848;28;20227;-77
2023/08/16 13:21:53;;;;;;;2.10;2.00;;;31.60;99.90;;;;;;5033164;28;20501;-76
2023/08/16 13:24:24;;;;;;;2.15;2.05;;;31.60;99.90;;;;;;5033031;28;20241;-76
2023/08/16 13:26:55;;;;;;;2.55;2.35;;;31.40;99.90;;;;;;5032730;28;20212;-76
2023/08/16 13:29:26;;;;;;;2.22;1.80;;;31.20;99.90;;;;;;5028070;28;20808;-75
2023/08/16 13:32:00;;;;;;;2.13;1.92;;;30.80;99.90;;;;;;5024054;28;20249;-76
2023/08/16 13:34:49;;;;;;;2.42;2.22;;;30.40;99.90;;;;;;5024266;28;20205;-75
2023/08/16 13:37:20;;;;;;;1.65;1.55;;;30.00;99.90;;;;;;5027671;28;20198;-76
2023/08/16 13:39:54;;;;;;;2.42;2.08;;;29.70;99.90;;;;;;5030963;28;20228;-76
2023/08/16 13:42:25;;;;;;;1.70;1.60;;;29.60;99.90;;;;;;5027586;28;20694;-74
2023/08/16 13:45:05;;;;;;;1.70;1.60;;;29.20;99.90;;;;;;5028536;28;20754;-75
2023/08/16 13:47:36;;;;;;;1.95;1.85;;;29.00;99.90;;;;;;5028748;28;20608;-75
2023/08/16 13:50:05;;;;;;;1.75;1.65;;;28.70;99.90;;;;;;5029877;28;20718;-74